AAL1086 KSDF-KCLT
Flight info
| Callsign | AAL1086 |
|---|---|
| Flight time | 0h 57m |
| Altitude | 35000 |
| Route | EEVAA1 SHIPR TAFTT PARQR4 |
| Aircraft | B738/M-SDE2E3FGHIRWXY/LB1 |
Departure
| Time | 2026-05-08 01:21 |
|---|---|
| Airport | Louisville Muhammad Ali International Airport (KSDF) |
Arrival
| Time | 2026-05-08 02:18 |
|---|---|
| Airport | Charlotte Douglas International Airport (KCLT) |
| Time | Latitude | Longitude | Altitude | Speed | Heading |
|---|---|---|---|---|---|
| 2026-05-08 00:25 | 38.18210 | -85.74094 | 488 ft | 0 kts | 325° |
| 2026-05-08 01:03 | 38.18207 | -85.74091 | 488 ft | 2 kts | 324° |
| 2026-05-08 01:03 | 38.18193 | -85.74076 | 478 ft | 3 kts | 306° |
| 2026-05-08 01:03 | 38.18184 | -85.74055 | 483 ft | 3 kts | 280° |
| 2026-05-08 01:03 | 38.18184 | -85.74031 | 483 ft | 3 kts | 251° |
| 2026-05-08 01:04 | 38.18191 | -85.74012 | 478 ft | 3 kts | 239° |
| 2026-05-08 01:04 | 38.18199 | -85.73995 | 481 ft | 1 kts | 239° |
| 2026-05-08 01:04 | 38.18199 | -85.73994 | 482 ft | 0 kts | 239° |
| 2026-05-08 01:10 | 38.18198 | -85.73996 | 488 ft | 1 kts | 239° |
| 2026-05-08 01:11 | 38.18149 | -85.74104 | 487 ft | 14 kts | 235° |
| 2026-05-08 01:11 | 38.18105 | -85.74196 | 487 ft | 19 kts | 240° |
| 2026-05-08 01:11 | 38.18086 | -85.74263 | 484 ft | 2 kts | 251° |
| 2026-05-08 01:11 | 38.18061 | -85.74360 | 488 ft | 15 kts | 253° |
| 2026-05-08 01:12 | 38.18024 | -85.74467 | 487 ft | 13 kts | 214° |
| 2026-05-08 01:12 | 38.17929 | -85.74463 | 483 ft | 19 kts | 166° |
| 2026-05-08 01:12 | 38.17854 | -85.74434 | 485 ft | 0 kts | 165° |
| 2026-05-08 01:12 | 38.17830 | -85.74427 | 486 ft | 11 kts | 166° |
| 2026-05-08 01:13 | 38.17786 | -85.74416 | 485 ft | 11 kts | 179° |
| 2026-05-08 01:13 | 38.17751 | -85.74411 | 486 ft | 6 kts | 145° |
| 2026-05-08 01:13 | 38.17738 | -85.74399 | 484 ft | 5 kts | 152° |
| 2026-05-08 01:13 | 38.17662 | -85.74372 | 484 ft | 15 kts | 170° |
| 2026-05-08 01:14 | 38.17554 | -85.74335 | 486 ft | 12 kts | 166° |
| 2026-05-08 01:14 | 38.17529 | -85.74327 | 483 ft | 0 kts | 167° |
| 2026-05-08 01:14 | 38.17527 | -85.74327 | 484 ft | 3 kts | 166° |
| 2026-05-08 01:14 | 38.17435 | -85.74297 | 482 ft | 26 kts | 166° |
| 2026-05-08 01:15 | 38.17326 | -85.74261 | 479 ft | 12 kts | 168° |
| 2026-05-08 01:15 | 38.17305 | -85.74255 | 484 ft | 8 kts | 167° |
| 2026-05-08 01:15 | 38.17207 | -85.74223 | 486 ft | 16 kts | 166° |
| 2026-05-08 01:15 | 38.17094 | -85.74182 | 482 ft | 20 kts | 164° |
| 2026-05-08 01:16 | 38.17004 | -85.74154 | 484 ft | 15 kts | 166° |
| 2026-05-08 01:16 | 38.16968 | -85.74142 | 479 ft | 4 kts | 165° |
| 2026-05-08 01:16 | 38.16885 | -85.74114 | 482 ft | 16 kts | 163° |
| 2026-05-08 01:16 | 38.16746 | -85.74069 | 482 ft | 19 kts | 168° |
| 2026-05-08 01:17 | 38.16647 | -85.74039 | 482 ft | 17 kts | 165° |
| 2026-05-08 01:17 | 38.16530 | -85.73996 | 484 ft | 11 kts | 165° |
| 2026-05-08 01:17 | 38.16447 | -85.73968 | 484 ft | 12 kts | 166° |
| 2026-05-08 01:17 | 38.16340 | -85.73936 | 484 ft | 19 kts | 167° |
| 2026-05-08 01:18 | 38.16217 | -85.73894 | 483 ft | 17 kts | 166° |
| 2026-05-08 01:18 | 38.16102 | -85.73857 | 483 ft | 16 kts | 167° |
| 2026-05-08 01:18 | 38.16000 | -85.73823 | 483 ft | 16 kts | 165° |
| 2026-05-08 01:18 | 38.15918 | -85.73797 | 483 ft | 11 kts | 169° |
| 2026-05-08 01:19 | 38.15851 | -85.73830 | 481 ft | 15 kts | 244° |
| 2026-05-08 01:19 | 38.15838 | -85.73920 | 479 ft | 8 kts | 295° |
| 2026-05-08 01:19 | 38.15860 | -85.73938 | 479 ft | 0 kts | 341° |
| 2026-05-08 01:20 | 38.15927 | -85.73964 | 475 ft | 34 kts | 344° |
| 2026-05-08 01:20 | 38.16374 | -85.74107 | 481 ft | 100 kts | 344° |
| 2026-05-08 01:21 | 38.17251 | -85.74395 | 483 ft | 160 kts | 343° |
| 2026-05-08 01:21 | 38.18416 | -85.74768 | 907 ft | 183 kts | 345° |
| 2026-05-08 01:21 | 38.19659 | -85.75192 | 1807 ft | 186 kts | 343° |
| 2026-05-08 01:21 | 38.20788 | -85.75759 | 2628 ft | 190 kts | 330° |
| 2026-05-08 01:22 | 38.21962 | -85.76585 | 3320 ft | 198 kts | 327° |
| 2026-05-08 01:22 | 38.23157 | -85.77475 | 3588 ft | 220 kts | 328° |
| 2026-05-08 01:22 | 38.24497 | -85.78251 | 3870 ft | 237 kts | 346° |
| 2026-05-08 01:22 | 38.26131 | -85.78458 | 4439 ft | 243 kts | 358° |
| 2026-05-08 01:23 | 38.27772 | -85.78254 | 5025 ft | 247 kts | 10° |
| 2026-05-08 01:23 | 38.29439 | -85.77796 | 5657 ft | 245 kts | 0° |
| 2026-05-08 01:23 | 38.31133 | -85.77487 | 6272 ft | 251 kts | 21° |
| 2026-05-08 01:23 | 38.32438 | -85.76020 | 6875 ft | 257 kts | 52° |
| 2026-05-08 01:24 | 38.33372 | -85.74066 | 7452 ft | 262 kts | 62° |
| 2026-05-08 01:24 | 38.33631 | -85.71875 | 7897 ft | 273 kts | 97° |
| 2026-05-08 01:24 | 38.32920 | -85.69778 | 8385 ft | 282 kts | 123° |
| 2026-05-08 01:24 | 38.31897 | -85.67542 | 8651 ft | 300 kts | 115° |
| 2026-05-08 01:25 | 38.30937 | -85.65136 | 9314 ft | 308 kts | 123° |
| 2026-05-08 01:25 | 38.29546 | -85.63239 | 9864 ft | 312 kts | 143° |
| 2026-05-08 01:25 | 38.27762 | -85.61653 | 9996 ft | 313 kts | 147° |
| 2026-05-08 01:25 | 38.25955 | -85.60102 | 10002 ft | 314 kts | 146° |
| 2026-05-08 01:26 | 38.24193 | -85.58568 | 10295 ft | 319 kts | 146° |
| 2026-05-08 01:26 | 38.22443 | -85.56951 | 10619 ft | 338 kts | 143° |
| 2026-05-08 01:26 | 38.20591 | -85.55042 | 10809 ft | 361 kts | 141° |
| 2026-05-08 01:26 | 38.18645 | -85.52967 | 11000 ft | 382 kts | 141° |
| 2026-05-08 01:27 | 38.16605 | -85.50788 | 11416 ft | 395 kts | 141° |
| 2026-05-08 01:27 | 38.14485 | -85.48539 | 12038 ft | 400 kts | 142° |
| 2026-05-08 01:27 | 38.12326 | -85.46267 | 12726 ft | 405 kts | 143° |
| 2026-05-08 01:27 | 38.10135 | -85.43977 | 13357 ft | 411 kts | 144° |
| 2026-05-08 01:28 | 38.07908 | -85.41659 | 13974 ft | 416 kts | 144° |
| 2026-05-08 01:28 | 38.05659 | -85.39323 | 14566 ft | 420 kts | 145° |
| 2026-05-08 01:28 | 38.03378 | -85.36955 | 15160 ft | 425 kts | 145° |
| 2026-05-08 01:28 | 38.01109 | -85.34600 | 15740 ft | 429 kts | 146° |
| 2026-05-08 01:29 | 37.98781 | -85.32186 | 16315 ft | 434 kts | 146° |
| 2026-05-08 01:29 | 37.96600 | -85.29482 | 16830 ft | 447 kts | 130° |
| 2026-05-08 01:29 | 37.95118 | -85.26040 | 17371 ft | 458 kts | 110° |
| 2026-05-08 01:29 | 37.94363 | -85.22121 | 17947 ft | 463 kts | 101° |
| 2026-05-08 01:30 | 37.93760 | -85.18083 | 18418 ft | 469 kts | 101° |
| 2026-05-08 01:30 | 37.93147 | -85.14007 | 18832 ft | 475 kts | 101° |
| 2026-05-08 01:30 | 37.92480 | -85.09890 | 19287 ft | 479 kts | 102° |
| 2026-05-08 01:30 | 37.91828 | -85.05879 | 19728 ft | 483 kts | 99° |
| 2026-05-08 01:31 | 37.91736 | -85.01623 | 20123 ft | 487 kts | 82° |
| 2026-05-08 01:31 | 37.92139 | -84.97353 | 20577 ft | 490 kts | 80° |
| 2026-05-08 01:31 | 37.92597 | -84.93046 | 20986 ft | 495 kts | 79° |
| 2026-05-08 01:31 | 37.93044 | -84.88762 | 21365 ft | 500 kts | 80° |
| 2026-05-08 01:32 | 37.93476 | -84.84374 | 21773 ft | 505 kts | 81° |
| 2026-05-08 01:32 | 37.93885 | -84.79934 | 22171 ft | 509 kts | 81° |
| 2026-05-08 01:32 | 37.94278 | -84.75457 | 22590 ft | 513 kts | 81° |
| 2026-05-08 01:32 | 37.94666 | -84.70946 | 22967 ft | 518 kts | 81° |
| 2026-05-08 01:33 | 37.95055 | -84.66385 | 23315 ft | 523 kts | 81° |
| 2026-05-08 01:33 | 37.95447 | -84.61787 | 23680 ft | 527 kts | 81° |
| 2026-05-08 01:33 | 37.95842 | -84.57160 | 23992 ft | 530 kts | 81° |
| 2026-05-08 01:33 | 37.96240 | -84.52504 | 24320 ft | 533 kts | 81° |
| 2026-05-08 01:34 | 37.96466 | -84.47877 | 24616 ft | 538 kts | 92° |
| 2026-05-08 01:34 | 37.95819 | -84.43202 | 24901 ft | 539 kts | 109° |
| 2026-05-08 01:34 | 37.94662 | -84.38675 | 25272 ft | 540 kts | 111° |
| 2026-05-08 01:34 | 37.93460 | -84.34156 | 25553 ft | 543 kts | 111° |
| 2026-05-08 01:35 | 37.92246 | -84.29609 | 25828 ft | 547 kts | 111° |
| 2026-05-08 01:35 | 37.91037 | -84.25019 | 26138 ft | 550 kts | 111° |
| 2026-05-08 01:35 | 37.89843 | -84.20411 | 26432 ft | 553 kts | 110° |
| 2026-05-08 01:35 | 37.88669 | -84.15827 | 26679 ft | 556 kts | 110° |
| 2026-05-08 01:36 | 37.87481 | -84.11150 | 26934 ft | 559 kts | 110° |
| 2026-05-08 01:36 | 37.86293 | -84.06466 | 27222 ft | 561 kts | 110° |
| 2026-05-08 01:36 | 37.85094 | -84.01745 | 27498 ft | 564 kts | 110° |
| 2026-05-08 01:36 | 37.83890 | -83.97018 | 27758 ft | 566 kts | 110° |
| 2026-05-08 01:37 | 37.82678 | -83.92279 | 28022 ft | 568 kts | 111° |
| 2026-05-08 01:37 | 37.81458 | -83.87520 | 28348 ft | 569 kts | 111° |
| 2026-05-08 01:37 | 37.80237 | -83.82767 | 28711 ft | 568 kts | 111° |
| 2026-05-08 01:37 | 37.79015 | -83.78024 | 29105 ft | 568 kts | 111° |
| 2026-05-08 01:38 | 37.77791 | -83.73281 | 29489 ft | 567 kts | 111° |
| 2026-05-08 01:38 | 37.76564 | -83.68540 | 29846 ft | 567 kts | 111° |
| 2026-05-08 01:38 | 37.75353 | -83.63865 | 30213 ft | 567 kts | 111° |
| 2026-05-08 01:38 | 37.74124 | -83.59133 | 30472 ft | 568 kts | 112° |
| 2026-05-08 01:39 | 37.72887 | -83.54378 | 30681 ft | 571 kts | 112° |
| 2026-05-08 01:39 | 37.71644 | -83.49610 | 30897 ft | 573 kts | 112° |
| 2026-05-08 01:39 | 37.70395 | -83.44830 | 31110 ft | 575 kts | 112° |
| 2026-05-08 01:39 | 37.69136 | -83.40016 | 31273 ft | 578 kts | 112° |
| 2026-05-08 01:40 | 37.67869 | -83.35183 | 31440 ft | 581 kts | 112° |
| 2026-05-08 01:40 | 37.66598 | -83.30340 | 31656 ft | 582 kts | 112° |
| 2026-05-08 01:40 | 37.65325 | -83.25496 | 31939 ft | 582 kts | 112° |
| 2026-05-08 01:40 | 37.64063 | -83.20705 | 32154 ft | 584 kts | 113° |
| 2026-05-08 01:41 | 37.62780 | -83.15849 | 32363 ft | 586 kts | 113° |
| 2026-05-08 01:41 | 37.61487 | -83.10965 | 32522 ft | 588 kts | 113° |
| 2026-05-08 01:41 | 37.60188 | -83.06063 | 32744 ft | 589 kts | 113° |
| 2026-05-08 01:41 | 37.58888 | -83.01169 | 32969 ft | 590 kts | 113° |
| 2026-05-08 01:42 | 37.57582 | -82.96257 | 33175 ft | 591 kts | 114° |
| 2026-05-08 01:42 | 37.56272 | -82.91341 | 33388 ft | 592 kts | 114° |
| 2026-05-08 01:42 | 37.54869 | -82.86468 | 33566 ft | 588 kts | 122° |
| 2026-05-08 01:42 | 37.52836 | -82.82098 | 33791 ft | 568 kts | 139° |
| 2026-05-08 01:43 | 37.50256 | -82.78551 | 33996 ft | 550 kts | 148° |
| 2026-05-08 01:43 | 37.47500 | -82.75253 | 34251 ft | 547 kts | 150° |
| 2026-05-08 01:43 | 37.44728 | -82.71989 | 34586 ft | 543 kts | 150° |
| 2026-05-08 01:43 | 37.41974 | -82.68728 | 34865 ft | 542 kts | 149° |
| 2026-05-08 01:44 | 37.39250 | -82.65483 | 35028 ft | 540 kts | 149° |
| 2026-05-08 01:44 | 37.33812 | -82.58867 | 35013 ft | 547 kts | 148° |
| 2026-05-08 01:45 | 37.28410 | -82.52226 | 35013 ft | 546 kts | 148° |
| 2026-05-08 01:45 | 37.22991 | -82.45587 | 35026 ft | 544 kts | 148° |
| 2026-05-08 01:46 | 37.17563 | -82.38980 | 35026 ft | 543 kts | 149° |
| 2026-05-08 01:46 | 37.12139 | -82.32394 | 35021 ft | 543 kts | 149° |
| 2026-05-08 01:47 | 37.06715 | -82.25822 | 35013 ft | 542 kts | 149° |
| 2026-05-08 01:47 | 37.01015 | -82.19975 | 35010 ft | 508 kts | 167° |
| 2026-05-08 01:48 | 36.91663 | -82.13791 | 35006 ft | 515 kts | 166° |
| 2026-05-08 01:48 | 36.85508 | -82.09470 | 34987 ft | 492 kts | 167° |
| 2026-05-08 01:49 | 36.82566 | -82.07413 | 35002 ft | 477 kts | 167° |
| 2026-05-08 01:49 | 36.79710 | -82.05437 | 34904 ft | 465 kts | 168° |
| 2026-05-08 01:49 | 36.76855 | -82.03496 | 34139 ft | 472 kts | 168° |
| 2026-05-08 01:49 | 36.73929 | -82.01538 | 32945 ft | 483 kts | 168° |
| 2026-05-08 01:50 | 36.70925 | -81.99525 | 31691 ft | 496 kts | 166° |
| 2026-05-08 01:50 | 36.67900 | -81.97479 | 30537 ft | 506 kts | 165° |
| 2026-05-08 01:50 | 36.64841 | -81.95389 | 29297 ft | 513 kts | 164° |
| 2026-05-08 01:50 | 36.61702 | -81.93233 | 28055 ft | 517 kts | 163° |
| 2026-05-08 01:51 | 36.59637 | -81.91810 | 27547 ft | 513 kts | 162° |
| 2026-05-08 01:51 | 36.55592 | -81.89002 | 27341 ft | 486 kts | 163° |
| 2026-05-08 01:51 | 36.52712 | -81.87022 | 27271 ft | 466 kts | 164° |
| 2026-05-08 01:51 | 36.49922 | -81.85124 | 27135 ft | 448 kts | 165° |
| 2026-05-08 01:52 | 36.47275 | -81.83333 | 27008 ft | 432 kts | 165° |
| 2026-05-08 01:52 | 36.44758 | -81.81626 | 26735 ft | 422 kts | 165° |
| 2026-05-08 01:52 | 36.42224 | -81.79915 | 26236 ft | 418 kts | 165° |
| 2026-05-08 01:52 | 36.39706 | -81.78217 | 25723 ft | 417 kts | 164° |
| 2026-05-08 01:53 | 36.37163 | -81.76500 | 25136 ft | 416 kts | 163° |
| 2026-05-08 01:53 | 36.34653 | -81.74801 | 24724 ft | 411 kts | 163° |
| 2026-05-08 01:53 | 36.32187 | -81.73129 | 24361 ft | 405 kts | 163° |
| 2026-05-08 01:53 | 36.29720 | -81.71459 | 23958 ft | 401 kts | 163° |
| 2026-05-08 01:54 | 36.27281 | -81.69814 | 23490 ft | 399 kts | 162° |
| 2026-05-08 01:54 | 36.24863 | -81.68185 | 22970 ft | 396 kts | 162° |
| 2026-05-08 01:54 | 36.22483 | -81.66581 | 22454 ft | 393 kts | 162° |
| 2026-05-08 01:54 | 36.20066 | -81.64953 | 21946 ft | 388 kts | 162° |
| 2026-05-08 01:55 | 36.17735 | -81.63383 | 21525 ft | 383 kts | 161° |
| 2026-05-08 01:55 | 36.15417 | -81.61819 | 21143 ft | 376 kts | 162° |
| 2026-05-08 01:55 | 36.13160 | -81.60303 | 20677 ft | 373 kts | 162° |
| 2026-05-08 01:55 | 36.10878 | -81.58772 | 20137 ft | 372 kts | 162° |
| 2026-05-08 01:56 | 36.08621 | -81.57256 | 19673 ft | 369 kts | 161° |
| 2026-05-08 01:56 | 36.06411 | -81.55770 | 19256 ft | 365 kts | 161° |
| 2026-05-08 01:56 | 36.04215 | -81.54292 | 18818 ft | 363 kts | 161° |
| 2026-05-08 01:56 | 36.02001 | -81.52808 | 18381 ft | 361 kts | 161° |
| 2026-05-08 01:57 | 35.99819 | -81.51348 | 17895 ft | 359 kts | 161° |
| 2026-05-08 01:57 | 35.97639 | -81.49890 | 17447 ft | 356 kts | 161° |
| 2026-05-08 01:57 | 35.95471 | -81.48441 | 17062 ft | 352 kts | 161° |
| 2026-05-08 01:57 | 35.93329 | -81.47012 | 17029 ft | 355 kts | 161° |
| 2026-05-08 01:58 | 35.91177 | -81.45579 | 16995 ft | 355 kts | 160° |
| 2026-05-08 01:58 | 35.89012 | -81.44132 | 17001 ft | 353 kts | 161° |
| 2026-05-08 01:58 | 35.86892 | -81.42717 | 16963 ft | 354 kts | 161° |
| 2026-05-08 01:58 | 35.84718 | -81.41268 | 16975 ft | 354 kts | 161° |
| 2026-05-08 01:59 | 35.82577 | -81.39841 | 16972 ft | 355 kts | 161° |
| 2026-05-08 01:59 | 35.80408 | -81.38397 | 16964 ft | 355 kts | 161° |
| 2026-05-08 01:59 | 35.78235 | -81.36950 | 16965 ft | 355 kts | 161° |
| 2026-05-08 01:59 | 35.75979 | -81.35990 | 16963 ft | 331 kts | 184° |
| 2026-05-08 02:00 | 35.73705 | -81.35533 | 16944 ft | 344 kts | 170° |
| 2026-05-08 02:00 | 35.71648 | -81.34122 | 16998 ft | 358 kts | 153° |
| 2026-05-08 02:00 | 35.69592 | -81.32285 | 16725 ft | 356 kts | 152° |
| 2026-05-08 02:00 | 35.67601 | -81.30508 | 16291 ft | 353 kts | 153° |
| 2026-05-08 02:01 | 35.65658 | -81.28835 | 15784 ft | 353 kts | 153° |
| 2026-05-08 02:01 | 35.63628 | -81.27147 | 15321 ft | 350 kts | 153° |
| 2026-05-08 02:01 | 35.61606 | -81.25503 | 14933 ft | 346 kts | 154° |
| 2026-05-08 02:01 | 35.59603 | -81.23896 | 14528 ft | 343 kts | 153° |
| 2026-05-08 02:02 | 35.57633 | -81.22327 | 14144 ft | 340 kts | 153° |
| 2026-05-08 02:02 | 35.55667 | -81.20766 | 13764 ft | 337 kts | 153° |
| 2026-05-08 02:02 | 35.53740 | -81.19237 | 13339 ft | 333 kts | 153° |
| 2026-05-08 02:02 | 35.51860 | -81.17745 | 12963 ft | 329 kts | 153° |
| 2026-05-08 02:03 | 35.49966 | -81.16242 | 12519 ft | 327 kts | 153° |
| 2026-05-08 02:03 | 35.48062 | -81.14735 | 12122 ft | 323 kts | 153° |
| 2026-05-08 02:03 | 35.46187 | -81.13252 | 12012 ft | 321 kts | 153° |
| 2026-05-08 02:03 | 35.44304 | -81.11765 | 11996 ft | 322 kts | 153° |
| 2026-05-08 02:04 | 35.42438 | -81.10288 | 11976 ft | 314 kts | 153° |
| 2026-05-08 02:04 | 35.40643 | -81.08927 | 11957 ft | 301 kts | 163° |
| 2026-05-08 02:04 | 35.38715 | -81.08310 | 12007 ft | 286 kts | 182° |
| 2026-05-08 02:04 | 35.36716 | -81.08127 | 11978 ft | 289 kts | 184° |
| 2026-05-08 02:05 | 35.34721 | -81.07979 | 11977 ft | 290 kts | 184° |
| 2026-05-08 02:05 | 35.32781 | -81.07825 | 11834 ft | 285 kts | 184° |
| 2026-05-08 02:05 | 35.30850 | -81.07661 | 11488 ft | 282 kts | 184° |
| 2026-05-08 02:05 | 35.28976 | -81.07498 | 11068 ft | 282 kts | 184° |
| 2026-05-08 02:06 | 35.27024 | -81.07325 | 10695 ft | 280 kts | 184° |
| 2026-05-08 02:06 | 35.25092 | -81.07152 | 10359 ft | 277 kts | 183° |
| 2026-05-08 02:06 | 35.23178 | -81.06981 | 9986 ft | 275 kts | 183° |
| 2026-05-08 02:06 | 35.21276 | -81.06812 | 9591 ft | 273 kts | 183° |
| 2026-05-08 02:07 | 35.19449 | -81.06650 | 9154 ft | 273 kts | 183° |
| 2026-05-08 02:07 | 35.17663 | -81.06492 | 8778 ft | 272 kts | 182° |
| 2026-05-08 02:07 | 35.15797 | -81.06328 | 8396 ft | 270 kts | 182° |
| 2026-05-08 02:07 | 35.13930 | -81.06163 | 7994 ft | 269 kts | 181° |
| 2026-05-08 02:08 | 35.12096 | -81.06001 | 7612 ft | 267 kts | 181° |
| 2026-05-08 02:08 | 35.10297 | -81.05841 | 7209 ft | 267 kts | 181° |
| 2026-05-08 02:08 | 35.08487 | -81.05681 | 6813 ft | 266 kts | 181° |
| 2026-05-08 02:08 | 35.06695 | -81.05522 | 6462 ft | 264 kts | 180° |
| 2026-05-08 02:09 | 35.04893 | -81.05425 | 6079 ft | 263 kts | 182° |
| 2026-05-08 02:09 | 35.03145 | -81.05383 | 5625 ft | 265 kts | 182° |
| 2026-05-08 02:09 | 35.01353 | -81.05326 | 5197 ft | 267 kts | 181° |
| 2026-05-08 02:09 | 34.99537 | -81.05227 | 4750 ft | 269 kts | 178° |
| 2026-05-08 02:10 | 34.97718 | -81.05077 | 4312 ft | 270 kts | 177° |
| 2026-05-08 02:10 | 34.95833 | -81.05006 | 4100 ft | 261 kts | 181° |
| 2026-05-08 02:10 | 34.94087 | -81.04546 | 3990 ft | 258 kts | 150° |
| 2026-05-08 02:10 | 34.92789 | -81.03147 | 4002 ft | 256 kts | 120° |
| 2026-05-08 02:11 | 34.92215 | -81.01182 | 3995 ft | 246 kts | 90° |
| 2026-05-08 02:11 | 34.92226 | -80.99175 | 3988 ft | 235 kts | 83° |
| 2026-05-08 02:11 | 34.92347 | -80.97237 | 3969 ft | 224 kts | 73° |
| 2026-05-08 02:11 | 34.93027 | -80.95634 | 3979 ft | 208 kts | 39° |
| 2026-05-08 02:12 | 34.94153 | -80.94538 | 3983 ft | 213 kts | 44° |
| 2026-05-08 02:12 | 34.95018 | -80.93062 | 4005 ft | 215 kts | 45° |
| 2026-05-08 02:12 | 34.96270 | -80.92207 | 4003 ft | 209 kts | 4° |
| 2026-05-08 02:12 | 34.97687 | -80.92531 | 4011 ft | 212 kts | 340° |
| 2026-05-08 02:13 | 34.99114 | -80.92986 | 3989 ft | 207 kts | 347° |
| 2026-05-08 02:13 | 35.00397 | -80.93279 | 3961 ft | 188 kts | 350° |
| 2026-05-08 02:13 | 35.01655 | -80.93465 | 3983 ft | 180 kts | 354° |
| 2026-05-08 02:13 | 35.02932 | -80.93597 | 3982 ft | 187 kts | 354° |
| 2026-05-08 02:14 | 35.04068 | -80.93702 | 3856 ft | 187 kts | 354° |
| 2026-05-08 02:14 | 35.05316 | -80.93811 | 3639 ft | 184 kts | 355° |
| 2026-05-08 02:14 | 35.06524 | -80.93916 | 3400 ft | 177 kts | 355° |
| 2026-05-08 02:14 | 35.07709 | -80.94018 | 3175 ft | 165 kts | 356° |
| 2026-05-08 02:15 | 35.08822 | -80.94114 | 2960 ft | 154 kts | 356° |
| 2026-05-08 02:15 | 35.09810 | -80.94200 | 2812 ft | 141 kts | 356° |
| 2026-05-08 02:15 | 35.10658 | -80.94274 | 2623 ft | 133 kts | 357° |
| 2026-05-08 02:15 | 35.11557 | -80.94352 | 2451 ft | 128 kts | 357° |
| 2026-05-08 02:16 | 35.12387 | -80.94422 | 2294 ft | 133 kts | 357° |
| 2026-05-08 02:16 | 35.13254 | -80.94498 | 2124 ft | 132 kts | 358° |
| 2026-05-08 02:16 | 35.14172 | -80.94578 | 1955 ft | 133 kts | 358° |
| 2026-05-08 02:16 | 35.15112 | -80.94659 | 1757 ft | 134 kts | 354° |
| 2026-05-08 02:17 | 35.16066 | -80.94767 | 1588 ft | 139 kts | 356° |
| 2026-05-08 02:17 | 35.16950 | -80.94869 | 1391 ft | 138 kts | 356° |
| 2026-05-08 02:17 | 35.17909 | -80.94950 | 1161 ft | 139 kts | 358° |
| 2026-05-08 02:17 | 35.18871 | -80.95011 | 994 ft | 137 kts | 358° |
| 2026-05-08 02:18 | 35.19809 | -80.95073 | 805 ft | 134 kts | 357° |
| 2026-05-08 02:18 | 35.20737 | -80.95153 | 742 ft | 133 kts | 357° |
| 2026-05-08 02:18 | 35.21501 | -80.95199 | 737 ft | 108 kts | 359° |
| 2026-05-08 02:18 | 35.21930 | -80.95251 | 740 ft | 29 kts | 355° |
| 2026-05-08 02:19 | 35.22037 | -80.95258 | 740 ft | 1 kts | 358° |
| 2026-05-08 02:19 | 35.22040 | -80.95258 | 740 ft | 1 kts | 358° |
| 2026-05-08 02:19 | 35.22083 | -80.95246 | 741 ft | 16 kts | 35° |
| 2026-05-08 02:19 | 35.22109 | -80.95167 | 736 ft | 0 kts | 83° |
| 2026-05-08 02:21 | 35.22109 | -80.95165 | 737 ft | 1 kts | 82° |
| 2026-05-08 02:22 | 35.22110 | -80.95160 | 737 ft | 0 kts | 81° |
| 2026-05-08 02:22 | 35.22110 | -80.95154 | 736 ft | 1 kts | 82° |
| 2026-05-08 02:22 | 35.22111 | -80.95150 | 736 ft | 0 kts | 81° |
| 2026-05-08 02:22 | 35.22111 | -80.95149 | 736 ft | 0 kts | 81° |
| 2026-05-08 02:23 | 35.22110 | -80.95109 | 734 ft | 6 kts | 96° |
| 2026-05-08 02:23 | 35.22093 | -80.94987 | 731 ft | 19 kts | 147° |
| 2026-05-08 02:24 | 35.21985 | -80.94972 | 732 ft | 15 kts | 166° |
| 2026-05-08 02:24 | 35.21935 | -80.94962 | 732 ft | 3 kts | 174° |
| 2026-05-08 02:24 | 35.21888 | -80.94956 | 732 ft | 3 kts | 180° |
| 2026-05-08 02:24 | 35.21878 | -80.94950 | 732 ft | 6 kts | 137° |
| 2026-05-08 02:25 | 35.21878 | -80.94835 | 731 ft | 14 kts | 78° |
| 2026-05-08 02:25 | 35.21883 | -80.94785 | 731 ft | 0 kts | 98° |
| 2026-05-08 02:25 | 35.21878 | -80.94778 | 731 ft | 5 kts | 128° |
| 2026-05-08 02:25 | 35.21826 | -80.94698 | 731 ft | 14 kts | 107° |
| 2026-05-08 02:26 | 35.21832 | -80.94625 | 731 ft | 6 kts | 73° |
| 2026-05-08 02:26 | 35.21832 | -80.94602 | 731 ft | 6 kts | 101° |
| 2026-05-08 02:26 | 35.21828 | -80.94585 | 731 ft | 0 kts | 106° |
| 2026-05-08 02:28 | 35.21830 | -80.94597 | 731 ft | 2 kts | 123° |
| 2026-05-08 02:28 | 35.21836 | -80.94614 | 731 ft | 2 kts | 124° |
| 2026-05-08 02:28 | 35.21837 | -80.94613 | 730 ft | 1 kts | 108° |
| 2026-05-08 02:28 | 35.21834 | -80.94602 | 730 ft | 2 kts | 108° |
| 2026-05-08 02:29 | 35.21833 | -80.94598 | 730 ft | 0 kts | 109° |